PWSweather.com
Personal Weather Stations
Station Observations
FAUSKE
Nordland, Norway, FauskeNO 8200

Nordland, NorwayFauskeNO 8200

Lat: 67.2607586, Lon: 15.4114204

Elevation: 40

Station Type: Davis Vantage PRO2

http://www.bjornli.net/weather.html

Latest ConditionsUpdated 5:09:57 PM GMT+01:01 Thursday, Mar 23, 2017
Currently Today's Max Today's Min Today's Average
Temperature 27.9°F-2.3°C 34.3°F1.3°C 27.9°F-2.3°C 31.0°F-0.6°C
Dew Point 22.8°F-5.1°C 30.0°F-1.1°C 22.8°F-5.1°C 26.9°F-2.8°C
Winds Calm Calm 13.0 mph W20.9 kmh W - 2.8 mph 4.5 kmh
Wind Gusts 6.0 mph9.7 kmh 18.0 mph29.0 kmh - -
Humidity 81% 95% 69% 85%
Pressure 29.82 in1009.8 mb 29.82 in1009.8 mb 29.40 in995.6 mb -
Hour Temp Dew Point Humidity Winds Wind Gusts Pressure Precip Precip Rate Daily Precip Total
05:09 PM 27.9°F-2.3°C 22.8°F-5.1°C 81% Calm Calm 6.0 mph9.7 kmh 29.82 in1009.8 mb 0.01 in0.3 mm 0.00 in0.0 mm 0.04 in1.0 mm
05:00 PM 28.2°F-2.1°C 23.7°F-4.6°C 83% Calm Calm 5.0 mph8.0 kmh 29.81 in1009.5 mb 0.01 in0.3 mm 0.00 in0.0 mm 0.04 in1.0 mm
04:40 PM 29.5°F-1.4°C 24.7°F-4.1°C 82% Calm Calm 10.0 mph16.1 kmh 29.81 in1009.5 mb 0.01 in0.3 mm 0.00 in0.0 mm 0.04 in1.0 mm
04:30 PM 30.5°F-0.8°C 24.2°F-4.3°C 77% 2.0 mph WSW3.2 kmh WSW 6.0 mph9.7 kmh 29.81 in1009.5 mb 0.01 in0.3 mm 0.00 in0.0 mm 0.04 in1.0 mm
04:10 PM 30.5°F-0.8°C 22.9°F-5.1°C 73% 3.0 mph SW4.8 kmh SW 12.0 mph19.3 kmh 29.80 in1009.1 mb 0.02 in0.5 mm 0.06 in1.5 mm 0.04 in1.0 mm
04:00 PM 31.0°F-0.6°C 23.1°F-4.9°C 72% 4.0 mph WSW6.4 kmh WSW 7.0 mph11.3 kmh 29.79 in1008.8 mb 0.01 in0.3 mm 0.00 in0.0 mm 0.03 in0.8 mm
03:40 PM 31.7°F-0.2°C 23.7°F-4.6°C 72% Calm Calm 13.0 mph20.9 kmh 29.79 in1008.8 mb 0.02 in0.5 mm 0.00 in0.0 mm 0.03 in0.8 mm
03:30 PM 31.4°F-0.3°C 24.1°F-4.4°C 74% 5.0 mph WSW8.0 kmh WSW 11.0 mph17.7 kmh 29.79 in1008.8 mb 0.02 in0.5 mm 0.00 in0.0 mm 0.03 in0.8 mm
03:10 PM 32.6°F0.3°C 25.9°F-3.4°C 76% Calm Calm 13.0 mph20.9 kmh 29.78 in1008.5 mb 0.02 in0.5 mm 0.00 in0.0 mm 0.03 in0.8 mm
03:00 PM 32.4°F0.2°C 26.9°F-2.8°C 80% 1.0 mph SW1.6 kmh SW 2.0 mph3.2 kmh 29.78 in1008.5 mb 0.02 in0.5 mm 0.02 in0.5 mm 0.03 in0.8 mm
02:40 PM 30.7°F-0.7°C 25.9°F-3.4°C 82% 2.0 mph NNE3.2 kmh NNE 16.0 mph25.7 kmh 29.78 in1008.5 mb 0.01 in0.3 mm 0.00 in0.0 mm 0.02 in0.5 mm
02:30 PM 30.3°F-0.9°C 26.3°F-3.2°C 85% 4.0 mph WSW6.4 kmh WSW 4.0 mph6.4 kmh 29.77 in1008.1 mb 0.01 in0.3 mm 0.00 in0.0 mm 0.02 in0.5 mm
02:10 PM 32.4°F0.2°C 25.1°F-3.8°C 74% 5.0 mph WSW8.0 kmh WSW 14.0 mph22.5 kmh 29.76 in1007.8 mb 0.01 in0.3 mm 0.06 in1.5 mm 0.02 in0.5 mm
02:00 PM 32.9°F0.5°C 24.9°F-3.9°C 72% 5.0 mph SW8.0 kmh SW 5.0 mph8.0 kmh 29.75 in1007.5 mb 0.00 in0.0 mm 0.00 in0.0 mm 0.01 in0.3 mm
01:40 PM 32.4°F0.2°C 25.4°F-3.7°C 75% 12.0 mph NNW19.3 kmh NNW 13.0 mph20.9 kmh 29.74 in1007.1 mb 0.01 in0.3 mm 0.00 in0.0 mm 0.01 in0.3 mm
01:30 PM 32.6°F0.3°C 24.6°F-4.1°C 72% 6.0 mph WSW9.7 kmh WSW 7.0 mph11.3 kmh 29.74 in1007.1 mb 0.01 in0.3 mm 0.00 in0.0 mm 0.01 in0.3 mm
01:10 PM 32.8°F0.4°C 24.8°F-4.0°C 72% 3.0 mph SW4.8 kmh SW 15.0 mph24.1 kmh 29.72 in1006.4 mb 0.01 in0.3 mm 0.00 in0.0 mm 0.01 in0.3 mm
01:00 PM 33.8°F1.0°C 25.7°F-3.5°C 72% 9.0 mph WSW14.5 kmh WSW 9.0 mph14.5 kmh 29.72 in1006.4 mb 0.01 in0.3 mm 0.00 in0.0 mm 0.01 in0.3 mm
12:40 PM 34.2°F1.2°C 27.4°F-2.6°C 76% 4.0 mph SW6.4 kmh SW 13.0 mph20.9 kmh 29.70 in1005.8 mb 0.01 in0.3 mm 0.06 in1.5 mm 0.01 in0.3 mm
12:30 PM 34.3°F1.3°C 29.1°F-1.6°C 81% 2.0 mph W3.2 kmh W 4.0 mph6.4 kmh 29.70 in1005.8 mb 0.00 in0.0 mm 0.00 in0.0 mm 0.00 in0.0 mm
12:10 PM 33.2°F0.7°C 28.9°F-1.7°C 84% Calm Calm 10.0 mph16.1 kmh 29.69 in1005.4 mb 0.00 in0.0 mm 0.00 in0.0 mm 0.00 in0.0 mm
12:00 PM 33.0°F0.6°C 29.8°F-1.2°C 88% Calm Calm -- 29.68 in1005.1 mb 0.00 in0.0 mm 0.00 in0.0 mm 0.00 in0.0 mm
11:40 AM 30.2°F-1.0°C 28.4°F-2.0°C 93% 6.0 mph WSW9.7 kmh WSW 6.0 mph9.7 kmh 29.67 in1004.7 mb 0.00 in0.0 mm 0.00 in0.0 mm 0.00 in0.0 mm
11:30 AM 29.8°F-1.2°C 28.0°F-2.2°C 93% Calm Calm -- 29.66 in1004.4 mb 0.00 in0.0 mm 0.00 in0.0 mm 0.00 in0.0 mm
11:10 AM 30.8°F-0.7°C 28.8°F-1.8°C 92% Calm Calm 13.0 mph20.9 kmh 29.65 in1004.1 mb 0.00 in0.0 mm 0.00 in0.0 mm 0.00 in0.0 mm
11:00 AM 30.8°F-0.7°C 29.0°F-1.7°C 93% Calm Calm 1.0 mph1.6 kmh 29.64 in1003.7 mb 0.00 in0.0 mm 0.00 in0.0 mm 0.00 in0.0 mm
10:40 AM 30.5°F-0.8°C 28.7°F-1.8°C 93% Calm Calm 4.0 mph6.4 kmh 29.62 in1003.0 mb 0.00 in0.0 mm 0.00 in0.0 mm 0.00 in0.0 mm
10:30 AM 30.5°F-0.8°C 28.7°F-1.8°C 93% 2.0 mph SW3.2 kmh SW 2.0 mph3.2 kmh 29.62 in1003.0 mb 0.00 in0.0 mm 0.00 in0.0 mm 0.00 in0.0 mm
10:10 AM 31.1°F-0.5°C 29.3°F-1.5°C 93% Calm Calm 5.0 mph8.0 kmh 29.60 in1002.4 mb 0.00 in0.0 mm 0.00 in0.0 mm 0.00 in0.0 mm
10:00 AM 31.2°F-0.4°C 29.2°F-1.6°C 92% Calm Calm -- 29.59 in1002.0 mb 0.00 in0.0 mm 0.00 in0.0 mm 0.00 in0.0 mm
09:40 AM 31.4°F-0.3°C 29.4°F-1.4°C 92% 5.0 mph SW8.0 kmh SW 18.0 mph29.0 kmh 29.58 in1001.7 mb 0.00 in0.0 mm 0.00 in0.0 mm 0.00 in0.0 mm
09:30 AM 31.5°F-0.3°C 28.9°F-1.7°C 90% 1.0 mph SW1.6 kmh SW 5.0 mph8.0 kmh 29.57 in1001.4 mb 0.00 in0.0 mm 0.00 in0.0 mm 0.00 in0.0 mm
09:10 AM 32.2°F0.1°C 29.1°F-1.6°C 88% 5.0 mph SW8.0 kmh SW 15.0 mph24.1 kmh 29.55 in1000.7 mb 0.00 in0.0 mm 0.00 in0.0 mm 0.00 in0.0 mm
09:00 AM 32.4°F0.2°C 29.8°F-1.2°C 90% Calm Calm -- 29.55 in1000.7 mb 0.00 in0.0 mm 0.00 in0.0 mm 0.00 in0.0 mm
08:40 AM 32.4°F0.2°C 29.8°F-1.2°C 90% Calm Calm 11.0 mph17.7 kmh 29.53 in1000.0 mb 0.00 in0.0 mm 0.00 in0.0 mm 0.00 in0.0 mm
08:30 AM 32.1°F0.1°C 29.2°F-1.6°C 89% 3.0 mph SW4.8 kmh SW 6.0 mph9.7 kmh 29.53 in1000.0 mb 0.00 in0.0 mm 0.00 in0.0 mm 0.00 in0.0 mm
08:10 AM 31.8°F-0.1°C 30.0°F-1.1°C 93% Calm Calm 15.0 mph24.1 kmh 29.52 in999.7 mb 0.00 in0.0 mm 0.00 in0.0 mm 0.00 in0.0 mm
08:00 AM 31.3°F-0.4°C 29.5°F-1.4°C 93% Calm Calm -- 29.51 in999.3 mb 0.00 in0.0 mm 0.00 in0.0 mm 0.00 in0.0 mm
07:40 AM 31.1°F-0.5°C 29.3°F-1.5°C 93% Calm Calm 1.0 mph1.6 kmh 29.50 in999.0 mb 0.00 in0.0 mm 0.00 in0.0 mm 0.00 in0.0 mm
07:30 AM 31.2°F-0.4°C 29.7°F-1.3°C 94% 1.0 mph NNE1.6 kmh NNE 1.0 mph1.6 kmh 29.49 in998.6 mb 0.00 in0.0 mm 0.00 in0.0 mm 0.00 in0.0 mm
07:10 AM 31.1°F-0.5°C 29.8°F-1.2°C 95% Calm Calm 6.0 mph9.7 kmh 29.47 in998.0 mb 0.00 in0.0 mm 0.00 in0.0 mm 0.00 in0.0 mm
07:00 AM 30.9°F-0.6°C 29.6°F-1.3°C 95% Calm Calm -- 29.47 in998.0 mb 0.00 in0.0 mm 0.00 in0.0 mm 0.00 in0.0 mm
06:40 AM 30.2°F-1.0°C 28.9°F-1.7°C 95% Calm Calm 14.0 mph22.5 kmh 29.45 in997.3 mb 0.00 in0.0 mm 0.00 in0.0 mm 0.00 in0.0 mm
06:30 AM 29.7°F-1.3°C 28.5°F-1.9°C 95% 4.0 mph W6.4 kmh W 11.0 mph17.7 kmh 29.45 in997.3 mb 0.00 in0.0 mm 0.00 in0.0 mm 0.00 in0.0 mm
06:10 AM 29.4°F-1.4°C 28.2°F-2.1°C 95% 13.0 mph W20.9 kmh W 17.0 mph27.4 kmh 29.43 in996.6 mb 0.00 in0.0 mm 0.00 in0.0 mm 0.00 in0.0 mm
06:00 AM 28.7°F-1.8°C 27.2°F-2.7°C 94% 9.0 mph WSW14.5 kmh WSW 14.0 mph22.5 kmh 29.43 in996.6 mb 0.00 in0.0 mm 0.00 in0.0 mm 0.00 in0.0 mm
05:40 AM 28.5°F-1.9°C 26.7°F-2.9°C 93% 4.0 mph S6.4 kmh S 10.0 mph16.1 kmh 29.43 in996.6 mb 0.00 in0.0 mm 0.00 in0.0 mm 0.00 in0.0 mm
05:30 AM 28.6°F-1.9°C 26.8°F-2.9°C 93% 5.0 mph SSW8.0 kmh SSW 5.0 mph8.0 kmh 29.43 in996.6 mb 0.00 in0.0 mm 0.00 in0.0 mm 0.00 in0.0 mm
05:10 AM 28.8°F-1.8°C 26.8°F-2.9°C 92% Calm Calm 4.0 mph6.4 kmh 29.42 in996.3 mb 0.00 in0.0 mm 0.00 in0.0 mm 0.00 in0.0 mm
05:00 AM 28.9°F-1.7°C 26.6°F-3.0°C 91% Calm Calm 2.0 mph3.2 kmh 29.42 in996.3 mb 0.00 in0.0 mm 0.00 in0.0 mm 0.00 in0.0 mm
04:40 AM 29.5°F-1.4°C 27.2°F-2.7°C 91% Calm Calm 7.0 mph11.3 kmh 29.41 in995.9 mb 0.00 in0.0 mm 0.00 in0.0 mm 0.00 in0.0 mm
04:30 AM 29.3°F-1.5°C 27.3°F-2.6°C 92% 5.0 mph SE8.0 kmh SE 6.0 mph9.7 kmh 29.41 in995.9 mb 0.00 in0.0 mm 0.00 in0.0 mm 0.00 in0.0 mm
04:10 AM 29.3°F-1.5°C 27.5°F-2.5°C 93% Calm Calm 6.0 mph9.7 kmh 29.41 in995.9 mb 0.00 in0.0 mm 0.00 in0.0 mm 0.00 in0.0 mm
04:00 AM 29.1°F-1.6°C 27.3°F-2.6°C 93% Calm Calm -- 29.41 in995.9 mb 0.00 in0.0 mm 0.00 in0.0 mm 0.00 in0.0 mm
03:40 AM 29.3°F-1.5°C 27.5°F-2.5°C 93% 1.0 mph S1.6 kmh S 11.0 mph17.7 kmh 29.41 in995.9 mb 0.00 in0.0 mm 0.00 in0.0 mm 0.00 in0.0 mm
03:30 AM 29.3°F-1.5°C 27.3°F-2.6°C 92% Calm Calm -- 29.41 in995.9 mb 0.00 in0.0 mm 0.00 in0.0 mm 0.00 in0.0 mm
03:10 AM 29.4°F-1.4°C 27.1°F-2.7°C 91% 9.0 mph SSW14.5 kmh SSW 12.0 mph19.3 kmh 29.41 in995.9 mb 0.00 in0.0 mm 0.00 in0.0 mm 0.00 in0.0 mm
03:00 AM 29.4°F-1.4°C 26.8°F-2.9°C 90% 1.0 mph S1.6 kmh S 4.0 mph6.4 kmh 29.40 in995.6 mb 0.00 in0.0 mm 0.00 in0.0 mm 0.00 in0.0 mm
02:40 AM 30.7°F-0.7°C 26.5°F-3.1°C 84% 3.0 mph SSW4.8 kmh SSW 11.0 mph17.7 kmh 29.41 in995.9 mb 0.00 in0.0 mm 0.00 in0.0 mm 0.00 in0.0 mm
02:30 AM 31.2°F-0.4°C 25.5°F-3.6°C 79% 6.0 mph S9.7 kmh S 7.0 mph11.3 kmh 29.41 in995.9 mb 0.00 in0.0 mm 0.00 in0.0 mm 0.00 in0.0 mm
02:10 AM 31.8°F-0.1°C 25.7°F-3.5°C 78% 12.0 mph S19.3 kmh S 14.0 mph22.5 kmh 29.40 in995.6 mb 0.00 in0.0 mm 0.00 in0.0 mm 0.00 in0.0 mm
02:00 AM 31.6°F-0.2°C 25.5°F-3.6°C 78% 5.0 mph SE8.0 kmh SE 8.0 mph12.9 kmh 29.40 in995.6 mb 0.00 in0.0 mm 0.00 in0.0 mm 0.00 in0.0 mm
01:40 AM 31.3°F-0.4°C 24.3°F-4.3°C 75% 6.0 mph S9.7 kmh S 14.0 mph22.5 kmh 29.41 in995.9 mb 0.00 in0.0 mm 0.00 in0.0 mm 0.00 in0.0 mm
01:30 AM 31.4°F-0.3°C 24.7°F-4.1°C 76% 5.0 mph S8.0 kmh S 9.0 mph14.5 kmh 29.42 in996.3 mb 0.00 in0.0 mm 0.00 in0.0 mm 0.00 in0.0 mm
01:10 AM 31.6°F-0.2°C 24.9°F-3.9°C 76% 5.0 mph S8.0 kmh S 14.0 mph22.5 kmh 29.43 in996.6 mb 0.00 in0.0 mm 0.00 in0.0 mm 0.00 in0.0 mm
01:00 AM 31.7°F-0.2°C 25.0°F-3.9°C 76% 9.0 mph S14.5 kmh S 12.0 mph19.3 kmh 29.43 in996.6 mb 0.00 in0.0 mm 0.00 in0.0 mm 0.00 in0.0 mm
12:40 AM 32.0°F0.0°C 25.0°F-3.9°C 75% 6.0 mph SSE9.7 kmh SSE 10.0 mph16.1 kmh 29.44 in997.0 mb 0.00 in0.0 mm 0.00 in0.0 mm 0.00 in0.0 mm
12:30 AM 32.2°F0.1°C 24.5°F-4.2°C 73% Calm Calm -- 29.44 in997.0 mb 0.00 in0.0 mm 0.00 in0.0 mm 0.00 in0.0 mm
12:10 AM 32.5°F0.3°C 23.5°F-4.7°C 69% Calm Calm 7.0 mph11.3 kmh 29.44 in997.0 mb 0.00 in0.0 mm 0.00 in0.0 mm 0.00 in0.0 mm
12:00 AM 32.2°F0.1°C 24.2°F-4.3°C 72% Calm Calm 2.0 mph3.2 kmh 29.45 in997.3 mb 0.00 in0.0 mm 0.00 in0.0 mm 0.00 in0.0 mm